Latest Weather Observations for Moorabbin Airport

IDV60801

Issued at 10:32 am EDT Monday 27 February 2017 (issued every 30 minutes, with the page automatically refreshed every 10 minutes)

About weather observations | Map of weather stations | Latest weather observations for VIC | Other Formats
Station Details ID: 086077 Name: MOORABBIN AIRPORT Lat: -37.98 Lon: 145.10 Height: 12.1 m
Data from the previous 72 hours. | See also: Recent months at Moorabbin Airport
Date/Time
EDT
Temp
°C
App
Temp
°C
Dew
Point
°C
Rel
Hum
%
Delta-T
°C
Wind Press
QNH
hPa
Press
MSL
hPa
Rain since
9am
mm
Dir  Spd
km/h
Gust
km/h
Spd
kts
Gust
kts
27/10:30am 25.5 22.8 13.4 47 7.1 N 20 26 11 14 1022.8 1022.8 0.0
27/10:00am 24.3 22.2 13.5 51 6.3 N 17 22 9 12 1022.7 1022.7 0.0
27/09:30am 22.9 20.8 13.7 56 5.4 N 17 28 9 15 1022.8 1022.8 0.0
27/09:00am 20.6 20.5 14.0 66 3.8 N 7 11 4 6 1022.9 1022.9 0.0
27/08:30am 18.3 19.0 14.4 78 2.2 NE 4 7 2 4 1022.8 1022.8 0.0
27/08:00am 16.7 17.4 14.5 87 1.3 NNE 4 7 2 4 1022.6 1022.6 0.0
27/07:30am 14.2 14.9 12.1 87 1.1 CALM 0 0 0 0 1022.5 1022.5 0.0
27/07:00am 13.7 14.2 11.6 87 1.1 CALM 0 6 0 3 1022.0 1022.0 0.0
27/06:30am 14.4 14.0 12.3 87 1.1 N 6 9 3 5 1021.5 1021.5 0.0
27/06:00am 13.9 14.4 11.6 86 1.2 CALM 0 0 0 0 1021.0 1021.0 0.0
27/05:30am 14.0 14.5 11.5 85 1.3 CALM 0 0 0 0 1020.7 1020.7 0.0
27/05:00am 14.0 14.4 11.3 84 1.4 CALM 0 0 0 0 1020.5 1020.5 0.0
27/04:30am 14.5 15.0 11.7 83 1.5 CALM 0 0 0 0 1020.4 1020.4 0.0
27/04:00am 14.9 15.4 11.7 81 1.7 CALM 0 4 0 2 1020.5 1020.5 0.0
27/03:30am 15.6 14.9 12.0 79 2.0 E 7 9 4 5 1020.5 1020.5 0.0
27/03:00am 15.4 14.3 11.8 79 1.9 ESE 9 9 5 5 1020.5 1020.5 0.0
27/02:30am 15.7 15.1 11.7 77 2.2 ESE 6 7 3 4 1020.5 1020.5 0.0
27/02:00am 16.2 15.1 11.8 75 2.4 ESE 9 11 5 6 1020.6 1020.6 0.0
27/01:30am 16.5 15.0 11.9 74 2.5 ESE 11 15 6 8 1020.5 1020.5 0.0
27/01:00am 17.0 15.4 11.7 71 2.9 ESE 11 15 6 8 1020.3 1020.3 0.0
27/12:30am 17.5 16.0 11.8 69 3.1 ESE 11 17 6 9 1020.4 1020.4 0.0
27/12:00am 18.0 15.0 11.8 67 3.4 ESE 19 26 10 14 1020.2 1020.2 0.0
 
Date/Time
EDT
Temp
°C
App
Temp
°C
Dew
Point
°C
Rel
Hum
%
Delta-T
°C
Wind Press
QNH
hPa
Press
MSL
hPa
Rain since
9am
mm
Dir  Spd
km/h
Gust
km/h
Spd
kts
Gust
kts
26/11:30pm 18.5 15.3 12.0 66 3.6 ESE 20 28 11 15 1020.2 1020.2 0.0
26/11:00pm 19.1 15.5 11.9 63 4.0 ESE 22 30 12 16 1020.3 1020.3 0.0
26/10:30pm 19.8 15.8 11.8 60 4.4 ESE 24 33 13 18 1020.3 1020.3 0.0
26/10:00pm 20.1 16.9 11.8 59 4.6 ESE 20 28 11 15 1020.3 1020.3 0.0
26/09:30pm 20.8 16.9 12.0 57 4.9 ESE 24 30 13 16 1020.1 1020.1 0.0
26/09:00pm 21.6 17.3 12.2 55 5.3 ESE 26 35 14 19 1019.7 1019.7 0.0
26/08:30pm 22.8 17.8 12.1 51 6.1 ESE 30 39 16 21 1019.4 1019.4 0.0
26/08:00pm 23.9 19.2 11.9 47 6.8 ESE 28 35 15 19 1019.1 1019.1 0.0
26/07:30pm 25.2 19.9 12.4 45 7.4 ESE 32 41 17 22 1018.9 1018.9 0.0
26/07:00pm 26.3 21.0 12.4 42 8.0 ESE 32 43 17 23 1018.6 1018.6 0.0
26/06:30pm 27.4 22.6 13.0 41 8.4 SE 30 39 16 21 1018.4 1018.4 0.0
26/06:00pm 28.5 24.9 13.2 39 9.0 ESE 24 32 13 17 1018.3 1018.3 0.0
26/05:30pm 28.5 25.6 12.8 38 9.2 ESE 20 30 11 16 1018.2 1018.2 0.0
26/05:00pm 28.0 25.6 14.3 43 8.2 S 20 26 11 14 1018.3 1018.3 0.0
26/04:30pm 26.9 24.4 14.0 45 7.7 S 20 28 11 15 1018.6 1018.6 0.0
26/04:00pm 26.6 24.4 15.0 49 7.0 SSW 20 26 11 14 1018.9 1018.9 0.0
26/03:30pm 26.3 24.7 16.0 53 6.3 SSW 19 24 10 13 1019.3 1019.3 0.0
26/03:00pm 26.4 24.7 14.8 49 7.0 SW 17 20 9 11 1019.6 1019.6 0.0
26/02:30pm 27.5 27.7 14.8 45 7.7 SW 7 22 4 12 1019.8 1019.8 0.0
26/02:00pm 27.2 26.5 13.2 42 8.2 ESE 9 17 5 9 1020.1 1020.1 0.0
26/01:30pm 25.8 24.5 12.6 44 7.6 SE 11 20 6 11 1020.5 1020.5 0.0
26/01:00pm 25.0 24.3 13.2 48 6.9 SSE 9 20 5 11 1020.8 1020.8 0.0
26/12:30pm 24.4 23.1 13.6 51 6.3 ESE 13 20 7 11 1021.2 1021.2 0.0
26/12:00pm 23.4 23.2 13.6 54 5.7 ESE 7 17 4 9 1021.4 1021.4 0.0
26/11:30am 21.9 21.1 13.0 57 5.1 SE 9 15 5 8 1021.7 1021.7 0.0
26/11:00am 21.4 21.3 13.3 60 4.6 NE 6 11 3 6 1021.8 1021.8 0.0
26/10:30am 20.4 20.7 13.4 64 4.0 ENE 4 9 2 5 1021.9 1021.9 0.0
26/10:00am 19.1 18.9 13.1 68 3.4 ENE 6 9 3 5 1022.0 1022.0 0.0
26/09:30am 18.7 19.7 13.3 71 3.1 CALM 0 0 0 0 1021.9 1021.9 0.0
26/09:00am 17.1 18.3 13.8 81 1.9 CALM 0 7 0 4 1021.9 1021.9 0.0
26/08:30am 16.1 17.3 13.9 87 1.2 CALM 0 0 0 0 1021.5 1021.5 0.0
26/08:00am 14.0 14.7 12.2 89 1.0 CALM 0 0 0 0 1021.3 1021.3 0.0
26/07:30am 13.3 13.7 11.4 88 1.0 CALM 0 0 0 0 1021.1 1021.1 0.0
26/07:00am 12.7 12.9 10.4 86 1.2 CALM 0 0 0 0 1020.9 1020.9 0.0
26/06:30am 12.9 13.0 10.3 84 1.3 CALM 0 4 0 2 1020.6 1020.6 0.0
26/06:00am 13.6 12.8 11.0 84 1.4 NNE 6 7 3 4 1020.1 1020.1 0.0
26/05:30am 13.4 12.2 10.4 82 1.6 SE 7 9 4 5 1019.8 1019.8 0.0
26/05:00am 13.4 12.1 9.8 79 1.8 ESE 7 9 4 5 1019.7 1019.7 0.0
26/04:30am 15.3 13.2 11.3 77 2.1 E 13 19 7 10 1019.5 1019.5 0.0
26/04:00am 15.8 12.5 11.6 76 2.3 E 20 28 11 15 1019.5 1019.5 0.0
26/03:30am 16.1 12.2 12.1 77 2.2 ESE 24 33 13 18 1019.9 1019.9 0.0
26/03:00am 16.2 12.8 12.4 78 2.1 ESE 22 33 12 18 1020.3 1020.3 0.0
26/02:30am 16.5 13.2 12.7 78 2.1 ESE 22 32 12 17 1020.3 1020.3 0.0
26/02:00am 16.6 12.9 12.8 78 2.1 SE 24 32 13 17 1020.6 1020.6 0.0
26/01:30am 16.8 12.5 13.1 79 2.1 SE 28 41 15 22 1020.4 1020.4 0.0
26/01:00am 17.2 12.9 13.3 78 2.2 SE 28 37 15 20 1020.8 1020.8 0.0
26/12:30am 17.1 13.5 13.2 78 2.2 SE 24 35 13 19 1021.2 1021.2 0.0
26/12:00am 16.8 13.3 13.3 80 2.0 SE 24 32 13 17 1021.4 1021.4 0.0
 
Date/Time
EDT
Temp
°C
App
Temp
°C
Dew
Point
°C
Rel
Hum
%
Delta-T
°C
Wind Press
QNH
hPa
Press
MSL
hPa
Rain since
9am
mm
Dir  Spd
km/h
Gust
km/h
Spd
kts
Gust
kts
25/11:30pm 16.8 13.1 12.7 77 2.3 SE 24 32 13 17 1021.5 1021.5 0.0
25/11:00pm 16.7 13.1 12.0 74 2.6 SE 22 32 12 17 1021.6 1021.6 0.0
25/10:30pm 17.2 13.6 11.9 71 2.9 SE 22 32 12 17 1021.7 1021.7 0.0
25/10:00pm 17.5 13.6 12.0 70 3.0 SE 24 33 13 18 1021.7 1021.7 0.0
25/09:30pm 17.6 15.0 13.9 79 2.1 SSE 20 26 11 14 1021.5 1021.5 0.0
25/09:00pm 17.6 15.2 13.9 79 2.1 S 19 24 10 13 1021.2 1021.2 0.0
25/08:30pm 17.9 15.7 13.4 75 2.5 S 17 22 9 12 1021.0 1021.0 0.0
25/08:00pm 18.1 16.4 13.6 75 2.5 SSW 15 20 8 11 1021.1 1021.1 0.0
25/07:30pm 18.2 15.2 12.4 69 3.2 SSW 20 28 11 15 1021.3 1021.3 0.0
25/07:00pm 18.2 14.1 11.3 64 3.7 SSW 24 30 13 16 1021.6 1021.6 0.0
25/06:30pm 18.6 13.8 10.2 58 4.5 S 26 37 14 20 1021.5 1021.5 0.0
25/06:00pm 19.1 14.2 9.9 55 4.9 SSW 26 33 14 18 1021.4 1021.4 0.0
25/05:30pm 19.8 14.2 10.0 53 5.3 SSW 30 37 16 20 1021.4 1021.4 0.0
25/05:00pm 19.2 13.8 11.0 59 4.4 SW 30 43 16 23 1021.6 1021.6 0.0
25/04:30pm 19.1 13.2 10.4 57 4.7 SW 32 43 17 23 1021.7 1021.7 0.0
25/04:00pm 18.7 13.1 10.0 57 4.6 SW 30 39 16 21 1021.8 1021.8 0.0
25/03:30pm 18.6 13.3 9.9 57 4.6 SW 28 39 15 21 1022.0 1022.0 0.0
25/03:00pm 18.6 13.2 9.4 55 4.8 SW 28 35 15 19 1022.2 1022.2 0.0
25/02:30pm 19.1 14.6 8.7 51 5.4 SW 22 32 12 17 1022.6 1022.6 0.0
25/02:00pm 19.0 14.0 9.5 54 5.0 SW 26 39 14 21 1023.1 1023.1 0.0
25/01:30pm 18.6 13.8 8.8 53 5.1 SSW 24 35 13 19 1023.3 1023.3 0.0
25/01:00pm 18.1 12.9 8.9 55 4.8 SW 26 35 14 19 1023.7 1023.7 0.0
25/12:30pm 18.0 13.0 9.4 57 4.5 SSW 26 35 14 19 1024.1 1024.1 0.0
25/12:00pm 17.5 12.6 8.6 56 4.6 SSW 24 33 13 18 1024.4 1024.4 0.0
25/11:30am 18.8 15.2 8.2 50 5.5 S 17 26 9 14 1024.6 1024.6 0.0
25/11:00am 17.7 13.9 7.7 52 5.0 SSE 17 22 9 12 1024.8 1024.8 0.0
25/10:30am 17.8 13.7 7.8 52 5.1 S 19 28 10 15 1025.1 1025.1 0.0
25/10:00am 16.2 12.6 8.4 60 3.9 S 17 24 9 13 1025.0 1025.0 0.0
25/09:30am 15.7 11.5 8.2 61 3.8 SE 20 28 11 15 1025.1 1025.1 0.0
25/09:00am 15.2 13.0 9.3 68 3.0 SSE 11 15 6 8 1025.2 1025.2 0.2
25/08:30am 13.4 11.5 9.1 75 2.2 SE 9 11 5 6 1025.1 1025.1 0.2
25/08:00am 11.1 9.1 7.2 77 1.9 SE 7 11 4 6 1025.0 1025.0 0.2
25/07:30am 11.6 9.2 7.1 74 2.2 SSE 9 13 5 7 1024.7 1024.7 0.2
25/07:00am 11.4 8.6 6.9 74 2.1 SSE 11 13 6 7 1024.3 1024.3 0.2
25/06:30am 11.9 9.3 7.6 75 2.1 SSE 11 13 6 7 1024.2 1024.2 0.2
25/06:00am 12.0 9.4 7.7 75 2.1 SSE 11 15 6 8 1024.1 1024.1 0.2
25/05:30am 11.8 9.5 7.5 75 2.1 SSE 9 13 5 7 1024.1 1024.1 0.2
25/05:00am 12.4 9.8 7.9 74 2.2 S 11 13 6 7 1024.1 1024.1 0.2
25/04:30am 12.9 10.4 8.0 72 2.4 SSE 11 15 6 8 1024.2 1024.2 0.2
25/04:00am 13.5 10.7 8.4 71 2.5 SSE 13 19 7 10 1024.3 1024.3 0.2
25/03:30am 14.1 10.5 8.5 69 2.8 SSE 17 24 9 13 1024.4 1024.4 0.2
25/03:00am 14.6 10.7 8.8 68 2.9 SSE 19 24 10 13 1024.4 1024.4 0.2
25/02:30am 14.9 11.3 9.7 71 2.7 SSE 19 28 10 15 1024.5 1024.5 0.2
25/02:00am 15.5 12.1 10.7 73 2.5 SSE 19 30 10 16 1024.7 1024.7 0.2
25/01:30am 15.2 13.4 10.8 75 2.3 SSE 11 15 6 8 1024.8 1024.8 0.2
25/01:00am 13.6 12.2 9.5 76 2.1 SE 7 9 4 5 1024.9 1024.9 0.2
25/12:30am 14.2 12.8 9.4 73 2.5 SSE 7 11 4 6 1025.0 1025.0 0.2
25/12:00am 15.1 12.7 10.1 72 2.6 SSE 13 15 7 8 1025.2 1025.2 0.2
 
Date/Time
EDT
Temp
°C
App
Temp
°C
Dew
Point
°C
Rel
Hum
%
Delta-T
°C
Wind Press
QNH
hPa
Press
MSL
hPa
Rain since
9am
mm
Dir  Spd
km/h
Gust
km/h
Spd
kts
Gust
kts
24/11:30pm 15.4 12.6 10.0 70 2.8 SSE 15 20 8 11 1025.3 1025.3 0.2
24/11:00pm 16.3 14.0 10.6 69 3.0 SSE 13 17 7 9 1025.4 1025.4 0.2
24/10:30pm 16.2 13.9 10.3 68 3.1 SSE 13 17 7 9 1025.6 1025.6 0.2
24/10:00pm 16.8 13.5 9.5 62 3.8 S 17 24 9 13 1025.7 1025.7 0.2
24/09:30pm 16.8 14.4 10.0 64 3.6 SSE 13 17 7 9 1025.6 1025.6 0.2
24/09:00pm 16.6 12.9 9.5 63 3.7 SSE 19 22 10 12 1025.4 1025.4 0.2
24/08:30pm 17.2 14.2 9.4 60 4.1 SSE 15 26 8 14 1025.1 1025.1 0.2
24/08:00pm 17.3 13.5 9.2 59 4.2 SSE 19 24 10 13 1025.0 1025.0 0.2
24/07:30pm 17.5 13.7 9.9 61 4.0 S 20 30 11 16 1024.7 1024.7 0.2
24/07:00pm 17.7 13.9 9.8 60 4.1 SSW 20 28 11 15 1024.7 1024.7 0.2
24/06:30pm 17.9 14.1 9.8 59 4.3 SSW 20 28 11 15 1024.7 1024.7 0.2
24/06:00pm 17.9 13.4 8.7 55 4.7 SSW 22 32 12 17 1024.8 1024.8 0.2
24/05:30pm 18.3 13.7 9.6 57 4.6 SSW 24 32 13 17 1024.7 1024.7 0.2
24/05:00pm 18.5 14.2 9.3 55 4.8 SSW 22 30 12 16 1024.6 1024.6 0.2
24/04:30pm 18.2 13.1 9.3 56 4.7 SSW 26 32 14 17 1024.7 1024.7 0.2
24/04:00pm 18.4 13.9 10.0 58 4.4 SSW 24 32 13 17 1024.7 1024.7 0.2
24/03:30pm 18.3 14.2 10.2 59 4.3 SSW 22 30 12 16 1024.9 1024.9 0.2
24/03:00pm 18.5 14.2 9.3 55 4.8 SSW 22 32 12 17 1025.1 1025.1 0.2
24/02:30pm 18.7 13.6 9.2 54 5.0 SSW 26 35 14 19 1025.2 1025.2 0.2
24/02:00pm 19.4 15.5 9.3 52 5.3 SSW 20 32 11 17 1025.2 1025.2 0.2
24/01:30pm 18.7 13.5 8.7 52 5.2 SSW 26 35 14 19 1025.1 1025.1 0.2
24/01:00pm 18.7 13.5 8.9 53 5.1 SSW 26 35 14 19 1025.1 1025.1 0.2
24/12:30pm 19.3 13.7 8.9 51 5.4 SSW 28 35 15 19 1025.0 1025.0 0.0
24/12:00pm 19.7 14.8 9.9 53 5.2 SSW 26 39 14 21 1025.2 1025.2 0.0
24/11:30am 18.6 14.2 8.8 53 5.1 SW 22 32 12 17 1025.3 1025.3 0.0
24/11:00am 17.8 13.5 9.2 57 4.5 SSW 22 30 12 16 1025.2 1025.2 0.0

Other Formats:

Comma delimited format used in spreadsheet applications
http://www.bom.gov.au/fwo/IDV60801/IDV60801.94870.axf

JavaScript Object Notation format (JSON) in row-major order
http://www.bom.gov.au/fwo/IDV60801/IDV60801.94870.json